Clifford Maersk — OYRO2 — position and weather

sailwx.info

Track history (hours):
 
Tides and Currents Weather Stations Pressure Air Temp Water Temp Dewpoint Dewpoint Depression Visibility Wind Speed Wind Dir Waves Ship Positions

Clifford Maersk

Last reported at 2014-Sep-26 07:33 UTC. Time now 2014-Oct-01 12:18 UTC.
Position N 01°15' E 103°25'.

Type: Ship (hazmat cat A). MMSI: 219840000.

Date/timePositionNaut miles runAvg speedWind from/ knotsBaromVisibWave heightAir tempDewpointWater temp
2014-Sep-26 07:33N 01°15' E 103°25'10 9.9
2014-Sep-26 06:33N 01°19' E 103°33'1 1.1
2014-Sep-26 05:30N 01°21' E 103°33'0 0.0
2014-Sep-26 04:03N 01°21' E 103°33'0 0.0
2014-Sep-26 03:33N 01°21' E 103°33'0 0.0
2014-Sep-26 02:30N 01°21' E 103°33'0 0.0
2014-Sep-26 01:33N 01°21' E 103°33'0 0.0
2014-Sep-26 00:27N 01°21' E 103°33'0 0.0
2014-Sep-25 23:33N 01°21' E 103°33'0 0.0
2014-Sep-25 22:30N 01°21' E 103°33'0 0.0
2014-Sep-25 21:27N 01°21' E 103°33'0 0.0
2014-Sep-25 20:30N 01°21' E 103°33'0 0.0
2014-Sep-25 19:24N 01°21' E 103°33'0 0.0
2014-Sep-25 18:33N 01°21' E 103°33'0 0.0
2014-Sep-25 17:33N 01°21' E 103°33'0 0.0
2014-Sep-25 16:33N 01°21' E 103°33'0 0.0
2014-Sep-25 15:33N 01°21' E 103°33'0 0.0
2014-Sep-25 14:31N 01°21' E 103°33'0 0.0
2014-Sep-25 13:33N 01°21' E 103°33'0 0.0
2014-Sep-25 12:33N 01°21' E 103°33'0 0.0
2014-Sep-25 11:33N 01°21' E 103°33'0 0.0
2014-Sep-25 10:33N 01°21' E 103°33'0 0.0
2014-Sep-25 09:33N 01°21' E 103°33'0 0.0
2014-Sep-25 08:33N 01°21' E 103°33'0 0.0
2014-Sep-25 07:32N 01°21' E 103°33'0 0.0
2014-Sep-25 06:32N 01°21' E 103°33'2 1.5
2014-Sep-25 05:30N 01°19' E 103°33'4 4.2
2014-Sep-25 04:33N 01°15' E 103°33'4 4.2
2014-Sep-25 03:33N 01°12' E 103°36'8 8.1
2014-Sep-25 02:33N 01°08' E 103°43'1110.6
2014-Sep-25 01:33N 01°13' E 103°53'1818.2
2014-Sep-25 00:33N 01°17' E 104°11'  
2014-Sep-21 05:14N 22°11' E 114°25'1115.7
2014-Sep-21 04:33N 22°08' E 114°14'1313.1
2014-Sep-21 03:32N 22°19' E 114°06'2 0.3
2014-Sep-20 22:07N 22°20' E 114°07'0 0.0
2014-Sep-20 13:33N 22°20' E 114°07'0 0.0
2014-Sep-20 10:10N 22°20' E 114°07'1 0.2
2014-Sep-20 07:25N 22°19' E 114°07'16814.8
2014-Sep-19 20:03N 22°57' E 117°05'5318.2
2014-Sep-19 17:07N 23°29' E 117°51'1118.6
2014-Sep-19 16:33N 23°35' E 118°00'1918.6
2014-Sep-19 15:33N 23°46' E 118°17'2118.9
2014-Sep-19 14:27N 23°59' E 118°35'5318.2
2014-Sep-19 11:32N 24°32' E 119°21'32816.0
2014-Sep-18 15:06N 29°08' E 122°39'4516.7
2014-Sep-18 12:26N 29°51' E 122°54'2614.1
2014-Sep-18 10:33N 30°17' E 122°52'1514.9
2014-Sep-18 09:33N 30°27' E 122°40'1514.6
2014-Sep-18 08:33N 30°32' E 122°23'1110.8
2014-Sep-18 07:33N 30°34' E 122°11'8 8.3
2014-Sep-18 06:33N 30°38' E 122°03'0 0.0
2014-Sep-18 05:31N 30°38' E 122°03'0 0.0
2014-Sep-18 04:34N 30°38' E 122°03'0 0.0
2014-Sep-18 03:32N 30°38' E 122°03'0 0.0
2014-Sep-18 02:32N 30°38' E 122°03'0 0.0
2014-Sep-18 01:33N 30°38' E 122°03'0 0.0
2014-Sep-18 00:33N 30°38' E 122°03'0 0.0
2014-Sep-17 23:33N 30°38' E 122°03'0 0.0
2014-Sep-17 22:32N 30°38' E 122°03'0 0.0
2014-Sep-17 21:33N 30°38' E 122°03'0 0.0
2014-Sep-17 20:32N 30°38' E 122°03'0 0.0
2014-Sep-17 19:32N 30°38' E 122°03'0 0.0
2014-Sep-17 18:33N 30°38' E 122°03'0 0.0
2014-Sep-17 17:32N 30°38' E 122°03'4 4.2
2014-Sep-17 16:33N 30°36' E 122°07'9 9.4
2014-Sep-17 15:33N 30°33' E 122°17'7 6.7
2014-Sep-17 14:32N 30°32' E 122°25'7 7.1
2014-Sep-17 13:32N 30°31' E 122°33'7 6.9
2014-Sep-17 12:33N 30°28' E 122°40'3 2.6
2014-Sep-17 11:33N 30°27' E 122°43'1 1.3
2014-Sep-17 10:33N 30°26' E 122°43'7 6.5
2014-Sep-17 09:33N 30°22' E 122°49'7 6.6
2014-Sep-17 08:31N 30°18' E 122°55'15 4.8
2014-Sep-17 05:26N 30°03' E 122°54'7 8.0
2014-Sep-17 04:30N 29°57' E 122°48'1010.5
2014-Sep-17 03:33N 29°50' E 122°40'1010.3
2014-Sep-17 02:33N 29°45' E 122°30'1110.6
2014-Sep-17 01:33N 29°46' E 122°17'1313.0
2014-Sep-17 00:33N 29°55' E 122°07'1313.2
2014-Sep-16 23:33N 29°57' E 121°52'1 1.3
2014-Sep-16 22:33N 29°57' E 121°50'0 0.0
2014-Sep-16 21:33N 29°57' E 121°50'0 0.0
2014-Sep-16 20:33N 29°57' E 121°50'0 0.0
2014-Sep-16 19:33N 29°57' E 121°50'0 0.0
2014-Sep-16 18:33N 29°57' E 121°50'0 0.0
2014-Sep-16 17:33N 29°57' E 121°50'0 0.0
2014-Sep-16 16:33N 29°57' E 121°50'0 0.0
2014-Sep-16 15:33N 29°57' E 121°50'0 0.0
2014-Sep-16 14:33N 29°57' E 121°50'0 0.0
2014-Sep-16 13:33N 29°57' E 121°50'0 0.0
2014-Sep-16 12:33N 29°57' E 121°50'0 0.0
2014-Sep-16 11:33N 29°57' E 121°50'0 0.0
2014-Sep-16 10:33N 29°57' E 121°50'0 0.0
2014-Sep-16 09:33N 29°57' E 121°50'0 0.0
2014-Sep-16 08:33N 29°57' E 121°50'  
Track history (hours):
 
Tides and Currents Weather Stations Pressure Air Temp Water Temp Dewpoint Dewpoint Depression Visibility Wind Speed Wind Dir Waves Ship Positions

Clifford Maersk

Last reported at 2014-Sep-26 07:33 UTC. Time now 2014-Oct-01 12:18 UTC.
Position N 01°15' E 103°25'.

Type: Ship (hazmat cat A). MMSI: 219840000.

Date/timePositionNaut miles runAvg speedWind from/ knotsBaromVisibWave heightAir tempDewpointWater temp
2014-Sep-26 07:33N 01°15' E 103°25'10 9.9
2014-Sep-26 06:33N 01°19' E 103°33'1 1.1
2014-Sep-26 05:30N 01°21' E 103°33'0 0.0
2014-Sep-26 04:03N 01°21' E 103°33'0 0.0
2014-Sep-26 03:33N 01°21' E 103°33'0 0.0
2014-Sep-26 02:30N 01°21' E 103°33'0 0.0
2014-Sep-26 01:33N 01°21' E 103°33'0 0.0
2014-Sep-26 00:27N 01°21' E 103°33'0 0.0
2014-Sep-25 23:33N 01°21' E 103°33'0 0.0
2014-Sep-25 22:30N 01°21' E 103°33'0 0.0
2014-Sep-25 21:27N 01°21' E 103°33'0 0.0
2014-Sep-25 20:30N 01°21' E 103°33'0 0.0
2014-Sep-25 19:24N 01°21' E 103°33'0 0.0
2014-Sep-25 18:33N 01°21' E 103°33'0 0.0
2014-Sep-25 17:33N 01°21' E 103°33'0 0.0
2014-Sep-25 16:33N 01°21' E 103°33'0 0.0
2014-Sep-25 15:33N 01°21' E 103°33'0 0.0
2014-Sep-25 14:31N 01°21' E 103°33'0 0.0
2014-Sep-25 13:33N 01°21' E 103°33'0 0.0
2014-Sep-25 12:33N 01°21' E 103°33'0 0.0
2014-Sep-25 11:33N 01°21' E 103°33'0 0.0
2014-Sep-25 10:33N 01°21' E 103°33'0 0.0
2014-Sep-25 09:33N 01°21' E 103°33'0 0.0
2014-Sep-25 08:33N 01°21' E 103°33'0 0.0
2014-Sep-25 07:32N 01°21' E 103°33'0 0.0
2014-Sep-25 06:32N 01°21' E 103°33'2 1.5
2014-Sep-25 05:30N 01°19' E 103°33'4 4.2
2014-Sep-25 04:33N 01°15' E 103°33'4 4.2
2014-Sep-25 03:33N 01°12' E 103°36'8 8.1
2014-Sep-25 02:33N 01°08' E 103°43'1110.6
2014-Sep-25 01:33N 01°13' E 103°53'1818.2
2014-Sep-25 00:33N 01°17' E 104°11'  
2014-Sep-21 05:14N 22°11' E 114°25'1115.7
2014-Sep-21 04:33N 22°08' E 114°14'1313.1
2014-Sep-21 03:32N 22°19' E 114°06'2 0.3
2014-Sep-20 22:07N 22°20' E 114°07'0 0.0
2014-Sep-20 13:33N 22°20' E 114°07'0 0.0
2014-Sep-20 10:10N 22°20' E 114°07'1 0.2
2014-Sep-20 07:25N 22°19' E 114°07'16814.8
2014-Sep-19 20:03N 22°57' E 117°05'5318.2
2014-Sep-19 17:07N 23°29' E 117°51'1118.6
2014-Sep-19 16:33N 23°35' E 118°00'1918.6
2014-Sep-19 15:33N 23°46' E 118°17'2118.9
2014-Sep-19 14:27N 23°59' E 118°35'5318.2
2014-Sep-19 11:32N 24°32' E 119°21'32816.0
2014-Sep-18 15:06N 29°08' E 122°39'4516.7
2014-Sep-18 12:26N 29°51' E 122°54'2614.1
2014-Sep-18 10:33N 30°17' E 122°52'1514.9
2014-Sep-18 09:33N 30°27' E 122°40'1514.6
2014-Sep-18 08:33N 30°32' E 122°23'1110.8
2014-Sep-18 07:33N 30°34' E 122°11'8 8.3
2014-Sep-18 06:33N 30°38' E 122°03'0 0.0
2014-Sep-18 05:31N 30°38' E 122°03'0 0.0
2014-Sep-18 04:34N 30°38' E 122°03'0 0.0
2014-Sep-18 03:32N 30°38' E 122°03'0 0.0
2014-Sep-18 02:32N 30°38' E 122°03'0 0.0
2014-Sep-18 01:33N 30°38' E 122°03'0 0.0
2014-Sep-18 00:33N 30°38' E 122°03'0 0.0
2014-Sep-17 23:33N 30°38' E 122°03'0 0.0
2014-Sep-17 22:32N 30°38' E 122°03'0 0.0
2014-Sep-17 21:33N 30°38' E 122°03'0 0.0
2014-Sep-17 20:32N 30°38' E 122°03'0 0.0
2014-Sep-17 19:32N 30°38' E 122°03'0 0.0
2014-Sep-17 18:33N 30°38' E 122°03'0 0.0
2014-Sep-17 17:32N 30°38' E 122°03'4 4.2
2014-Sep-17 16:33N 30°36' E 122°07'9 9.4
2014-Sep-17 15:33N 30°33' E 122°17'7 6.7
2014-Sep-17 14:32N 30°32' E 122°25'7 7.1
2014-Sep-17 13:32N 30°31' E 122°33'7 6.9
2014-Sep-17 12:33N 30°28' E 122°40'3 2.6
2014-Sep-17 11:33N 30°27' E 122°43'1 1.3
2014-Sep-17 10:33N 30°26' E 122°43'7 6.5
2014-Sep-17 09:33N 30°22' E 122°49'7 6.6
2014-Sep-17 08:31N 30°18' E 122°55'15 4.8
2014-Sep-17 05:26N 30°03' E 122°54'7 8.0
2014-Sep-17 04:30N 29°57' E 122°48'1010.5
2014-Sep-17 03:33N 29°50' E 122°40'1010.3
2014-Sep-17 02:33N 29°45' E 122°30'1110.6
2014-Sep-17 01:33N 29°46' E 122°17'1313.0
2014-Sep-17 00:33N 29°55' E 122°07'1313.2
2014-Sep-16 23:33N 29°57' E 121°52'1 1.3
2014-Sep-16 22:33N 29°57' E 121°50'0 0.0
2014-Sep-16 21:33N 29°57' E 121°50'0 0.0
2014-Sep-16 20:33N 29°57' E 121°50'0 0.0
2014-Sep-16 19:33N 29°57' E 121°50'0 0.0
2014-Sep-16 18:33N 29°57' E 121°50'0 0.0
2014-Sep-16 17:33N 29°57' E 121°50'0 0.0
2014-Sep-16 16:33N 29°57' E 121°50'0 0.0
2014-Sep-16 15:33N 29°57' E 121°50'0 0.0
2014-Sep-16 14:33N 29°57' E 121°50'0 0.0
2014-Sep-16 13:33N 29°57' E 121°50'0 0.0
2014-Sep-16 12:33N 29°57' E 121°50'0 0.0
2014-Sep-16 11:33N 29°57' E 121°50'0 0.0
2014-Sep-16 10:33N 29°57' E 121°50'0 0.0
2014-Sep-16 09:33N 29°57' E 121°50'0 0.0
2014-Sep-16 08:33N 29°57' E 121°50'  

Dump ship's entire track history